Time;durP1;ratioP1;P1;durP2;ratioP2;P2;SDS_P1;SDS_P2;PMS_P1;PMS_P2;Temp;Humidity;BMP_temperature;BMP_pressure;BME280_temperature;BME280_humidity;BME280_pressure;Samples;Min_cycle;Max_cycle;Signal;HPM_P1;HPM_P2
2022/04/03 00:00:58;;;;;;;5.32;1.67;;;3.40;98.60;;;;;;5058610;28;20113;-84
2022/04/03 00:03:24;;;;;;;6.03;2.15;;;3.30;99.00;;;;;;5042057;28;20024;-84
2022/04/03 00:05:50;;;;;;;4.05;2.05;;;3.30;98.80;;;;;;5041704;28;20137;-85
2022/04/03 00:08:15;;;;;;;7.72;2.00;;;3.30;99.10;;;;;;5041927;28;20028;-85
2022/04/03 00:10:44;;;;;;;4.10;1.92;;;3.30;99.30;;;;;;5058178;28;20029;-85
2022/04/03 00:13:10;;;;;;;3.53;1.70;;;3.20;99.60;;;;;;5057586;28;20108;-85
2022/04/03 00:15:41;;;;;;;4.05;1.70;;;3.20;99.70;;;;;;5075502;28;20028;-84
2022/04/03 00:18:09;;;;;;;;;;;3.20;99.50;;;;;;5076502;28;20115;-85
2022/04/03 00:20:40;;;;;;;4.55;1.80;;;3.20;99.00;;;;;;5057663;28;19908;-84
2022/04/03 00:23:06;;;;;;;3.20;1.73;;;3.10;99.70;;;;;;5058253;28;20032;-84
2022/04/03 00:25:32;;;;;;;5.57;1.88;;;3.10;99.70;;;;;;5076184;28;20025;-85
2022/04/03 00:27:58;;;;;;;3.88;1.90;;;3.10;99.90;;;;;;5075742;28;20036;-84
2022/04/03 00:30:24;;;;;;;7.75;2.90;;;3.10;99.90;;;;;;5076135;28;20036;-84
2022/04/03 00:32:50;;;;;;;16.80;6.50;;;3.00;99.90;;;;;;5041200;28;20025;-85
2022/04/03 00:35:16;;;;;;;14.30;5.60;;;3.00;99.90;;;;;;5057892;28;20016;-85
2022/04/03 00:37:42;;;;;;;15.82;6.65;;;3.00;99.90;;;;;;5057557;28;20060;-85
2022/04/03 00:40:09;;;;;;;14.82;4.30;;;3.00;99.90;;;;;;5057713;28;20060;-85
2022/04/03 00:42:36;;;;;;;8.40;3.92;;;3.00;99.90;;;;;;5057602;28;20016;-86
2022/04/03 00:45:03;;;;;;;9.52;5.03;;;3.00;99.90;;;;;;5024187;28;20037;-85
2022/04/03 00:47:30;;;;;;;12.15;5.05;;;2.90;99.90;;;;;;5023952;28;20032;-85
2022/04/03 00:49:57;;;;;;;17.98;7.60;;;2.90;99.90;;;;;;5075450;28;20025;-85
2022/04/03 00:52:23;;;;;;;13.32;5.60;;;2.90;99.90;;;;;;5041043;28;20028;-85
2022/04/03 00:54:48;;;;;;;11.35;4.57;;;2.90;99.90;;;;;;5057271;28;20024;-85
2022/04/03 00:57:14;;;;;;;8.65;2.50;;;2.80;99.90;;;;;;5041040;28;20465;-85
2022/04/03 00:59:42;;;;;;;6.13;2.15;;;2.80;99.90;;;;;;5040222;28;20108;-84
2022/04/03 01:02:08;;;;;;;2.95;1.60;;;2.80;99.90;;;;;;5075466;28;20036;-85
2022/04/03 01:04:37;;;;;;;4.85;1.90;;;2.80;99.90;;;;;;5077468;28;20032;-84
2022/04/03 01:07:02;;;;;;;4.63;2.00;;;2.80;99.90;;;;;;5061989;28;20031;-85
2022/04/03 01:09:28;;;;;;;4.93;1.98;;;2.80;99.90;;;;;;5060820;28;20333;-84
2022/04/03 01:11:54;;;;;;;3.10;1.83;;;2.70;99.90;;;;;;5060344;28;20024;-85
2022/04/03 01:14:34;;;;;;;5.72;1.60;;;2.70;99.90;;;;;;5095416;28;20031;-85
2022/04/03 01:17:00;;;;;;;3.92;1.90;;;2.70;99.90;;;;;;5095215;28;20479;-85
2022/04/03 01:19:26;;;;;;;4.72;1.63;;;2.60;99.90;;;;;;5077213;28;20062;-85
2022/04/03 01:21:52;;;;;;;3.97;1.60;;;2.60;99.90;;;;;;5076872;28;20055;-85
2022/04/03 01:24:19;;;;;;;5.38;1.70;;;2.60;99.90;;;;;;5060554;28;20055;-84
2022/04/03 01:26:45;;;;;;;4.15;1.60;;;2.60;99.90;;;;;;5060355;28;20024;-85
2022/04/03 01:29:11;;;;;;;4.88;1.90;;;2.50;99.90;;;;;;5076731;28;20480;-84
2022/04/03 01:31:37;;;;;;;5.28;1.85;;;2.50;99.90;;;;;;5094917;28;20069;-84
2022/04/03 01:34:02;;;;;;;4.13;1.92;;;2.60;99.90;;;;;;5077103;28;20024;-85
2022/04/03 01:36:28;;;;;;;2.45;1.60;;;2.50;99.90;;;;;;5060336;28;20039;-84
2022/04/03 01:38:54;;;;;;;7.07;1.80;;;2.50;99.90;;;;;;5075887;28;20039;-85
2022/04/03 01:41:20;;;;;;;5.03;2.15;;;2.40;99.90;;;;;;5060499;28;20474;-84
2022/04/03 01:43:45;;;;;;;3.28;1.80;;;2.40;99.90;;;;;;5060671;28;20024;-85
2022/04/03 01:46:11;;;;;;;3.90;1.75;;;2.40;99.90;;;;;;5078755;28;20112;-84
2022/04/03 01:48:37;;;;;;;4.03;1.70;;;2.30;99.90;;;;;;5045379;28;20499;-85
2022/04/03 01:51:05;;;;;;;4.78;2.30;;;2.30;99.90;;;;;;5062264;28;20032;-85
2022/04/03 01:53:30;;;;;;;5.00;1.90;;;2.30;99.90;;;;;;5062330;28;20123;-84
2022/04/03 01:56:05;;;;;;;3.63;1.70;;;2.30;99.90;;;;;;5098222;28;20012;-85
2022/04/03 01:58:32;;;;;;;4.75;1.80;;;2.20;99.90;;;;;;5100430;28;20061;-86
2022/04/03 02:00:58;;;;;;;4.50;1.88;;;2.20;99.90;;;;;;5101138;28;20019;-85
2022/04/03 02:03:24;;;;;;;4.63;1.88;;;2.20;99.90;;;;;;5101242;28;20004;-83
2022/04/03 02:05:50;;;;;;;4.07;2.20;;;2.20;99.90;;;;;;5097089;28;20218;-84
2022/04/03 02:08:16;;;;;;;4.80;2.30;;;2.10;99.90;;;;;;5060193;28;20024;-84
2022/04/03 02:10:42;;;;;;;6.25;2.33;;;2.10;99.90;;;;;;5094505;28;20020;-85
2022/04/03 02:13:08;;;;;;;7.13;2.80;;;2.10;99.90;;;;;;5095467;28;20020;-84
2022/04/03 02:15:34;;;;;;;5.53;2.65;;;2.00;99.90;;;;;;5077904;28;20024;-84
2022/04/03 02:18:00;;;;;;;4.35;2.30;;;2.10;99.90;;;;;;5076203;28;20434;-84
2022/04/03 02:20:26;;;;;;;6.35;2.80;;;2.00;99.90;;;;;;5076159;28;20059;-84
2022/04/03 02:22:52;;;;;;;6.28;2.45;;;2.00;99.90;;;;;;5058624;28;20101;-84
2022/04/03 02:25:19;;;;;;;6.72;2.65;;;2.00;99.90;;;;;;5058958;28;20024;-84
2022/04/03 02:27:46;;;;;;;4.20;2.40;;;2.00;99.90;;;;;;5093948;28;20032;-85
2022/04/03 02:30:13;;;;;;;7.03;2.70;;;2.00;99.90;;;;;;5075841;28;20081;-84
2022/04/03 02:32:41;;;;;;;6.93;2.70;;;2.00;99.90;;;;;;5075852;28;20034;-84
2022/04/03 02:35:09;;;;;;;4.80;2.70;;;2.00;99.90;;;;;;5074407;28;20385;-85
2022/04/03 02:37:36;;;;;;;5.47;2.67;;;2.00;99.90;;;;;;5093714;28;20028;-84
2022/04/03 02:40:04;;;;;;;6.40;2.33;;;2.00;99.90;;;;;;5075321;28;20024;-84
2022/04/03 02:42:30;;;;;;;5.43;2.50;;;1.90;99.90;;;;;;5059204;28;20373;-84
2022/04/03 02:44:56;;;;;;;5.65;2.53;;;1.90;99.90;;;;;;5093602;28;20031;-84
2022/04/03 02:47:23;;;;;;;7.35;2.92;;;1.90;99.90;;;;;;5058909;28;20032;-84
2022/04/03 02:49:52;;;;;;;6.82;3.50;;;1.90;99.90;;;;;;5075289;28;20376;-89
2022/04/03 02:52:19;;;;;;;8.57;2.78;;;1.90;99.90;;;;;;5075590;28;20028;-84
2022/04/03 02:54:45;;;;;;;6.35;2.88;;;1.90;99.90;;;;;;5075371;28;20035;-84
2022/04/03 02:57:12;;;;;;;7.45;2.83;;;1.90;99.90;;;;;;5074882;28;20440;-84
2022/04/03 02:59:38;;;;;;;4.72;2.78;;;1.90;99.90;;;;;;5058458;28;20060;-85
2022/04/03 03:02:04;;;;;;;5.72;2.60;;;1.90;99.90;;;;;;5058738;28;20024;-84
2022/04/03 03:04:31;;;;;;;5.57;2.72;;;1.90;99.90;;;;;;5075480;28;20024;-84
2022/04/03 03:06:57;;;;;;;5.95;2.60;;;1.80;99.90;;;;;;5059188;28;20173;-84
2022/04/03 03:09:23;;;;;;;7.97;2.80;;;1.80;99.90;;;;;;5075198;28;20024;-83
2022/04/03 03:11:49;;;;;;;5.90;2.40;;;1.90;99.90;;;;;;5058645;28;20030;-84
2022/04/03 03:14:15;;;;;;;4.97;2.70;;;1.90;99.90;;;;;;5075240;28;20024;-84
2022/04/03 03:16:42;;;;;;;5.68;2.65;;;1.90;99.90;;;;;;5076399;28;20021;-84
2022/04/03 03:19:08;;;;;;;6.43;2.72;;;1.80;99.90;;;;;;5062807;28;20071;-83
2022/04/03 03:21:35;;;;;;;7.15;2.90;;;1.80;99.90;;;;;;5093322;28;20020;-85
2022/04/03 03:24:01;;;;;;;5.50;3.10;;;1.80;99.90;;;;;;5058495;28;20031;-84
2022/04/03 03:26:27;;;;;;;6.30;2.65;;;1.80;99.90;;;;;;5093060;28;20020;-84
2022/04/03 03:28:53;;;;;;;6.10;2.63;;;1.80;99.90;;;;;;5093219;28;20136;-87
2022/04/03 03:31:19;;;;;;;4.47;2.60;;;1.80;99.90;;;;;;5075076;28;20468;-84
2022/04/03 03:33:46;;;;;;;5.10;2.72;;;1.80;99.90;;;;;;5058440;28;20063;-83
2022/04/03 03:36:12;;;;;;;6.38;2.58;;;1.70;99.90;;;;;;5074927;28;20032;-84
2022/04/03 03:38:37;;;;;;;7.60;2.80;;;1.80;99.90;;;;;;5074838;28;20031;-84
2022/04/03 03:41:03;;;;;;;6.57;2.75;;;1.80;99.90;;;;;;5074860;28;20365;-84
2022/04/03 03:43:29;;;;;;;9.00;3.40;;;1.80;99.90;;;;;;5074787;28;20056;-84
2022/04/03 03:45:56;;;;;;;5.55;3.10;;;1.80;99.90;;;;;;5058077;28;20038;-84
2022/04/03 03:48:22;;;;;;;8.20;3.40;;;1.80;99.90;;;;;;5058444;28;20025;-84
2022/04/03 03:50:48;;;;;;;7.75;3.13;;;1.80;99.90;;;;;;5092883;28;20035;-84
2022/04/03 03:53:14;;;;;;;5.32;2.33;;;1.80;99.90;;;;;;5074825;28;20028;-84
2022/04/03 03:55:40;;;;;;;6.15;2.75;;;1.80;99.90;;;;;;5041572;28;20028;-84
2022/04/03 03:58:05;;;;;;;7.22;2.70;;;1.80;99.90;;;;;;5074341;28;20433;-84
2022/04/03 04:00:31;;;;;;;6.95;2.53;;;1.80;99.90;;;;;;5093173;28;20094;-84
2022/04/03 04:02:57;;;;;;;5.47;2.85;;;1.80;99.90;;;;;;5074381;28;20035;-85
2022/04/03 04:05:22;;;;;;;5.22;2.80;;;1.80;99.90;;;;;;5074293;28;20036;-84
2022/04/03 04:07:49;;;;;;;4.72;2.50;;;1.80;99.90;;;;;;5041249;28;20067;-83
2022/04/03 04:10:16;;;;;;;6.78;3.15;;;1.80;99.90;;;;;;5057892;28;20073;-84
2022/04/03 04:12:43;;;;;;;5.00;2.35;;;1.80;99.90;;;;;;5092951;28;20082;-84
2022/04/03 04:15:10;;;;;;;6.68;3.00;;;1.80;99.90;;;;;;5074295;28;20066;-84
2022/04/03 04:17:47;;;;;;;6.82;2.38;;;1.80;99.90;;;;;;5072826;28;20028;-84
2022/04/03 04:20:17;;;;;;;4.80;2.70;;;1.80;99.90;;;;;;5074471;28;20380;-85
2022/04/03 04:22:45;;;;;;;6.80;2.60;;;1.80;99.90;;;;;;5095251;28;20483;-85
2022/04/03 04:25:12;;;;;;;5.15;2.40;;;1.80;99.90;;;;;;5077770;28;20024;-84
2022/04/03 04:27:38;;;;;;;6.95;2.65;;;1.80;99.90;;;;;;5095907;28;20035;-84
2022/04/03 04:30:04;;;;;;;5.18;2.63;;;1.80;99.90;;;;;;5077783;28;20495;-84
2022/04/03 04:32:32;;;;;;;8.48;2.50;;;1.80;99.90;;;;;;5096121;28;20023;-84
2022/04/03 04:34:57;;;;;;;5.18;2.40;;;1.80;99.90;;;;;;5061339;28;20047;-84
2022/04/03 04:37:24;;;;;;;8.02;3.10;;;1.80;99.90;;;;;;5095638;28;20464;-84
2022/04/03 04:39:50;;;;;;;6.82;2.92;;;1.80;99.90;;;;;;5077956;28;20035;-84
2022/04/03 04:42:16;;;;;;;6.88;3.10;;;1.70;99.90;;;;;;5096079;28;20028;-84
2022/04/03 04:44:42;;;;;;;6.07;2.63;;;1.80;99.90;;;;;;5077754;28;20024;-84
2022/04/03 04:47:08;;;;;;;4.72;2.45;;;1.80;99.90;;;;;;5077700;28;20453;-84
2022/04/03 04:49:34;;;;;;;4.60;2.50;;;1.80;99.90;;;;;;5061190;28;20034;-84
2022/04/03 04:52:03;;;;;;;4.95;3.20;;;1.80;99.90;;;;;;5061214;28;20028;-84
2022/04/03 04:54:30;;;;;;;4.72;2.80;;;1.80;99.90;;;;;;5061341;28;20028;-83
2022/04/03 04:56:56;;;;;;;6.97;3.08;;;1.80;99.90;;;;;;5077406;28;20028;-84
2022/04/03 04:59:22;;;;;;;7.28;3.50;;;1.80;99.90;;;;;;5061502;28;20063;-84
2022/04/03 05:01:49;;;;;;;5.00;2.80;;;1.80;99.90;;;;;;5062598;28;20118;-83
2022/04/03 05:04:15;;;;;;;8.25;3.10;;;1.80;99.90;;;;;;5062540;28;20118;-83
2022/04/03 05:06:42;;;;;;;5.40;2.85;;;1.80;99.90;;;;;;5061020;28;20071;-84
2022/04/03 05:09:09;;;;;;;6.40;3.53;;;1.80;99.90;;;;;;5077023;28;20111;-83
2022/04/03 05:11:37;;;;;;;7.97;2.97;;;1.80;99.90;;;;;;5060243;28;20118;-84
2022/04/03 05:14:03;;;;;;;7.15;2.97;;;1.90;99.90;;;;;;5061198;28;20028;-84
2022/04/03 05:16:30;;;;;;;6.72;2.75;;;1.80;99.90;;;;;;5059984;28;20538;-85
2022/04/03 05:18:56;;;;;;;9.60;3.30;;;1.80;99.90;;;;;;5060454;28;20036;-84
2022/04/03 05:21:22;;;;;;;7.70;2.72;;;1.80;99.90;;;;;;5060253;28;20039;-84
2022/04/03 05:23:49;;;;;;;8.05;3.28;;;1.90;99.90;;;;;;5094813;28;20111;-84
2022/04/03 05:26:16;;;;;;;5.57;3.30;;;1.90;99.90;;;;;;5060154;28;20115;-84
2022/04/03 05:28:43;;;;;;;6.10;3.10;;;1.90;99.90;;;;;;5076893;28;20407;-84
2022/04/03 05:31:09;;;;;;;7.15;3.08;;;1.90;99.90;;;;;;5060238;28;20032;-84
2022/04/03 05:33:35;;;;;;;5.13;2.60;;;1.90;99.90;;;;;;5078670;28;20023;-83
2022/04/03 05:36:00;;;;;;;7.88;2.80;;;1.90;99.90;;;;;;5063913;28;20028;-85
2022/04/03 05:38:26;;;;;;;6.68;2.60;;;1.90;99.90;;;;;;5060428;28;20481;-84
2022/04/03 05:40:52;;;;;;;6.95;2.67;;;1.90;99.90;;;;;;5060106;28;20524;-84
2022/04/03 05:43:17;;;;;;;13.95;2.92;;;1.90;99.90;;;;;;5059818;28;20024;-84
2022/04/03 05:45:43;;;;;;;9.80;3.13;;;1.90;99.90;;;;;;5043072;28;20048;-84
2022/04/03 05:48:09;;;;;;;5.78;3.22;;;1.90;99.90;;;;;;5059914;28;20036;-85
2022/04/03 05:50:38;;;;;;;5.30;2.95;;;1.90;99.90;;;;;;5076602;28;20028;-83
2022/04/03 05:53:04;;;;;;;5.68;2.42;;;1.90;99.90;;;;;;5094656;28;20020;-84
2022/04/03 05:55:30;;;;;;;5.65;2.70;;;1.90;99.90;;;;;;5059908;28;20031;-84
2022/04/03 05:57:56;;;;;;;3.70;2.33;;;1.90;99.90;;;;;;5076883;28;20028;-84
2022/04/03 06:00:23;;;;;;;6.10;2.60;;;2.00;99.90;;;;;;5075370;28;20115;-84
2022/04/03 06:02:54;;;;;;;6.63;3.08;;;2.00;99.90;;;;;;5076828;28;20020;-84
2022/04/03 06:05:31;;;;;;;8.77;3.42;;;2.00;99.90;;;;;;5094665;28;20446;-84
2022/04/03 06:07:57;;;;;;;7.38;3.05;;;2.00;99.90;;;;;;5059847;28;20071;-84
2022/04/03 06:10:24;;;;;;;5.20;2.70;;;2.00;99.90;;;;;;5059531;28;20036;-84
2022/04/03 06:13:14;;;;;;;5.70;2.63;;;2.00;99.90;;;;;;5076070;28;20012;-84
2022/04/03 06:15:45;;;;;;;5.15;2.60;;;2.00;99.90;;;;;;5075969;28;20024;-84
2022/04/03 06:18:12;;;;;;;;;;;2.00;99.90;;;;;;5076244;28;20476;-86
2022/04/03 06:20:38;;;;;;;8.45;2.90;;;2.00;99.90;;;;;;5094253;28;19911;-84
2022/04/03 06:23:14;;;;;;;8.38;4.50;;;2.00;99.90;;;;;;5059003;28;20037;-84
2022/04/03 06:25:40;;;;;;;5.95;3.33;;;2.00;99.90;;;;;;5075705;28;20024;-83
2022/04/03 06:28:06;;;;;;;7.50;3.55;;;2.00;99.90;;;;;;5059077;28;20032;-84
2022/04/03 06:30:31;;;;;;;8.65;3.88;;;2.00;99.90;;;;;;5075241;28;20052;-84
2022/04/03 06:32:57;;;;;;;7.43;4.50;;;2.00;99.90;;;;;;5075564;28;20016;-84
2022/04/03 06:35:23;;;;;;;8.73;3.95;;;2.00;99.90;;;;;;5075654;28;20097;-84
2022/04/03 06:37:49;;;;;;;6.78;3.53;;;2.00;99.90;;;;;;5076085;28;20362;-84
2022/04/03 06:40:16;;;;;;;10.25;3.83;;;2.00;99.90;;;;;;5075868;28;20051;-85
2022/04/03 06:42:42;;;;;;;9.68;3.90;;;2.00;99.90;;;;;;5059148;28;20038;-84
2022/04/03 06:45:08;;;;;;;6.03;3.75;;;2.00;99.90;;;;;;5058539;28;20438;-84
2022/04/03 06:47:35;;;;;;;7.68;3.42;;;2.00;99.90;;;;;;5058674;28;20028;-84
2022/04/03 06:50:01;;;;;;;8.75;3.63;;;2.10;99.90;;;;;;5075602;28;20473;-84
2022/04/03 06:52:27;;;;;;;8.07;4.03;;;2.10;99.90;;;;;;5094188;28;20035;-84
2022/04/03 06:54:52;;;;;;;9.50;4.60;;;2.10;99.90;;;;;;5093637;28;20516;-84
2022/04/03 06:57:18;;;;;;;9.02;3.90;;;2.20;99.90;;;;;;5075016;28;20032;-84
2022/04/03 06:59:45;;;;;;;10.73;4.28;;;2.20;99.90;;;;;;5074999;28;20052;-84
2022/04/03 07:02:10;;;;;;;12.02;3.60;;;2.30;99.90;;;;;;5075018;28;20036;-84
2022/04/03 07:04:36;;;;;;;13.10;4.35;;;2.30;99.90;;;;;;5075328;28;20039;-83
2022/04/03 07:07:03;;;;;;;10.07;4.43;;;2.30;99.90;;;;;;5075404;28;20016;-84
2022/04/03 07:09:29;;;;;;;9.75;4.07;;;2.40;99.90;;;;;;5058932;28;20086;-84
2022/04/03 07:11:55;;;;;;;8.40;4.32;;;2.50;99.90;;;;;;5059200;28;20031;-85
2022/04/03 07:14:21;;;;;;;6.93;3.85;;;2.50;99.90;;;;;;5058744;28;20119;-84
2022/04/03 07:16:46;;;;;;;5.82;3.90;;;2.60;99.90;;;;;;5075605;28;20105;-84
2022/04/03 07:19:12;;;;;;;8.73;3.15;;;2.70;99.90;;;;;;5059240;28;20051;-84
2022/04/03 07:21:37;;;;;;;8.43;4.32;;;2.70;99.90;;;;;;5076644;28;20732;-84
2022/04/03 07:24:07;;;;;;;9.85;3.63;;;2.80;99.90;;;;;;5059135;28;20031;-84
2022/04/03 07:26:34;;;;;;;7.25;3.63;;;2.80;99.90;;;;;;5075928;28;20028;-84
2022/04/03 07:28:59;;;;;;;9.70;3.65;;;2.90;99.90;;;;;;5075439;28;20460;-84
2022/04/03 07:31:28;;;;;;;7.60;4.35;;;2.90;99.90;;;;;;5074236;28;20042;-84
2022/04/03 07:33:54;;;;;;;6.50;3.75;;;3.00;99.90;;;;;;5075093;28;20028;-84
2022/04/03 07:36:20;;;;;;;9.35;3.70;;;3.10;99.90;;;;;;5093701;28;20506;-89
2022/04/03 07:38:45;;;;;;;8.48;3.72;;;3.10;99.90;;;;;;5059312;28;20495;-84
2022/04/03 07:41:11;;;;;;;8.27;3.63;;;3.30;99.90;;;;;;5058799;28;20085;-84
2022/04/03 07:43:37;;;;;;;12.02;6.13;;;3.40;99.90;;;;;;5058549;28;20035;-84
2022/04/03 07:46:03;;;;;;;11.55;4.32;;;3.40;99.90;;;;;;5075672;28;20028;-84
2022/04/03 07:48:29;;;;;;;6.50;3.67;;;3.50;99.90;;;;;;5058773;28;20119;-84
2022/04/03 07:50:55;;;;;;;12.52;3.92;;;3.60;99.90;;;;;;5075696;28;20028;-84
2022/04/03 07:53:21;;;;;;;7.88;4.07;;;3.70;99.90;;;;;;5059073;28;20445;-84
2022/04/03 07:55:46;;;;;;;6.97;4.18;;;3.80;99.90;;;;;;5077218;28;20357;-84
2022/04/03 07:58:12;;;;;;;8.20;4.25;;;3.90;99.90;;;;;;5079748;28;20028;-84
2022/04/03 08:00:38;;;;;;;6.07;3.88;;;4.00;99.90;;;;;;5062298;28;20024;-84
2022/04/03 08:03:04;;;;;;;10.23;4.32;;;4.10;99.90;;;;;;5062560;28;20032;-83
2022/04/03 08:05:31;;;;;;;9.27;5.57;;;4.20;99.90;;;;;;5079022;28;20024;-83
2022/04/03 08:07:58;;;;;;;8.75;4.38;;;4.30;99.90;;;;;;5063801;28;20047;-84
2022/04/03 08:10:23;;;;;;;8.30;3.78;;;4.40;99.90;;;;;;5062502;28;20491;-85
2022/04/03 08:12:51;;;;;;;6.70;3.85;;;4.50;99.90;;;;;;5062633;28;20028;-83
2022/04/03 08:15:19;;;;;;;6.13;3.50;;;4.70;99.90;;;;;;5063049;28;20024;-83
2022/04/03 08:17:46;;;;;;;5.65;3.53;;;4.80;99.90;;;;;;5079058;28;20028;-83
2022/04/03 08:20:16;;;;;;;8.60;4.18;;;4.90;99.90;;;;;;5079557;28;20495;-84
2022/04/03 08:22:43;;;;;;;8.15;3.20;;;5.00;99.90;;;;;;5062491;28;20032;-83
2022/04/03 08:25:10;;;;;;;7.53;3.80;;;5.10;99.90;;;;;;5078518;28;20169;-83
2022/04/03 08:27:44;;;;;;;6.00;3.22;;;5.30;99.90;;;;;;5078817;28;20059;-84
2022/04/03 08:30:13;;;;;;;5.40;3.40;;;5.40;99.90;;;;;;5063267;28;20425;-84
2022/04/03 08:32:39;;;;;;;5.45;3.00;;;5.60;99.90;;;;;;5079446;28;20082;-84
2022/04/03 08:35:05;;;;;;;4.80;3.28;;;5.80;99.90;;;;;;5079069;28;20538;-85
2022/04/03 08:37:31;;;;;;;9.30;3.42;;;5.90;99.90;;;;;;5062321;28;20050;-84
2022/04/03 08:39:57;;;;;;;5.30;2.45;;;6.10;99.90;;;;;;5062532;28;20472;-82
2022/04/03 08:42:23;;;;;;;9.32;3.05;;;6.30;99.90;;;;;;5062989;28;20137;-83
2022/04/03 08:44:48;;;;;;;7.05;2.53;;;6.40;99.90;;;;;;5062025;28;20402;-86
2022/04/03 08:47:17;;;;;;;4.82;2.30;;;6.50;99.90;;;;;;5062760;28;20028;-84
2022/04/03 08:49:44;;;;;;;4.90;2.30;;;6.60;99.90;;;;;;5078671;28;20055;-84
2022/04/03 08:52:12;;;;;;;4.63;2.50;;;6.60;99.90;;;;;;5078381;28;20024;-84
2022/04/03 08:54:39;;;;;;;6.90;2.75;;;6.70;99.90;;;;;;5078134;28;20027;-84
2022/04/03 08:57:05;;;;;;;3.88;2.20;;;6.80;99.90;;;;;;5096620;28;20103;-82
2022/04/03 08:59:31;;;;;;;4.95;1.98;;;6.80;99.90;;;;;;5096605;28;20055;-85
2022/04/03 09:01:57;;;;;;;4.00;2.15;;;6.90;99.90;;;;;;5062742;28;20461;-84
2022/04/03 09:04:22;;;;;;;4.25;2.30;;;7.00;99.90;;;;;;5061812;28;20384;-85
2022/04/03 09:06:59;;;;;;;4.88;2.20;;;7.10;99.90;;;;;;5079783;28;20476;-84
2022/04/03 09:09:27;;;;;;;4.82;2.42;;;7.20;99.90;;;;;;5100718;28;20023;-84
2022/04/03 09:12:13;;;;;;;4.15;2.20;;;7.30;99.90;;;;;;5083564;28;20020;-84
2022/04/03 09:14:53;;;;;;;4.88;2.10;;;7.40;99.90;;;;;;5101071;28;20055;-84
2022/04/03 09:17:42;;;;;;;3.17;1.88;;;7.50;99.90;;;;;;5085883;28;20012;-84
2022/04/03 09:20:09;;;;;;;6.28;2.13;;;7.60;99.90;;;;;;5087426;28;20042;-84
2022/04/03 09:22:39;;;;;;;5.32;2.13;;;7.70;99.90;;;;;;5110519;28;20020;-84
2022/04/03 09:25:06;;;;;;;3.88;1.85;;;7.80;99.90;;;;;;5098505;28;20085;-84
2022/04/03 09:27:45;;;;;;;3.88;1.98;;;7.90;99.90;;;;;;5115626;28;20028;-88
2022/04/03 09:30:11;;;;;;;3.75;2.38;;;8.00;99.90;;;;;;5085798;28;20135;-83
2022/04/03 09:33:07;;;;;;;5.78;2.70;;;8.20;99.90;;;;;;5080575;28;20028;-84
2022/04/03 09:36:01;;;;;;;4.18;2.20;;;8.30;99.90;;;;;;5063321;28;20063;-87
2022/04/03 09:38:28;;;;;;;4.15;2.25;;;8.50;99.90;;;;;;5065995;28;20024;-84
2022/04/03 09:40:54;;;;;;;2.67;1.85;;;8.50;99.90;;;;;;5074118;28;20028;-83
2022/04/03 09:43:25;;;;;;;6.95;1.75;;;8.60;99.80;;;;;;5101646;28;20433;-83
2022/04/03 09:46:11;;;;;;;5.07;1.90;;;8.70;99.90;;;;;;5103196;28;20031;-83
2022/04/03 09:48:43;;;;;;;5.07;2.15;;;8.70;99.90;;;;;;5082649;28;20032;-82
2022/04/03 09:51:19;;;;;;;4.53;2.20;;;8.70;99.90;;;;;;5078952;28;20032;-83
2022/04/03 09:53:53;;;;;;;4.22;2.00;;;8.70;99.90;;;;;;5081411;28;20020;-83
2022/04/03 09:56:22;;;;;;;2.65;1.60;;;8.80;99.90;;;;;;5064627;28;20423;-83
2022/04/03 09:58:50;;;;;;;3.15;1.77;;;8.80;99.90;;;;;;5096110;28;20044;-83
2022/04/03 10:01:35;;;;;;;4.35;1.20;;;8.80;99.90;;;;;;5081079;28;20054;-83
2022/04/03 10:04:03;;;;;;;1.90;0.77;;;8.80;99.40;;;;;;5085193;28;20020;-82
2022/04/03 10:06:30;;;;;;;4.57;1.10;;;8.80;99.70;;;;;;5069973;28;20188;-82
2022/04/03 10:08:58;;;;;;;2.17;0.70;;;8.90;99.90;;;;;;5105419;28;20035;-82
2022/04/03 10:11:24;;;;;;;2.17;0.77;;;8.90;99.90;;;;;;5072561;28;20027;-84
2022/04/03 10:13:50;;;;;;;3.40;1.00;;;9.00;99.90;;;;;;5090773;28;20024;-83
2022/04/03 10:16:18;;;;;;;1.88;0.82;;;9.10;99.90;;;;;;5090238;28;20016;-82
2022/04/03 10:18:44;;;;;;;2.08;1.20;;;9.20;99.90;;;;;;5092176;28;20032;-83
2022/04/03 10:21:16;;;;;;;6.85;2.60;;;9.30;99.90;;;;;;5073138;28;20040;-82
2022/04/03 10:23:45;;;;;;;2.83;1.55;;;9.40;98.70;;;;;;5093459;28;20016;-82
2022/04/03 10:26:15;;;;;;;4.93;1.65;;;9.50;99.60;;;;;;5091405;28;20051;-84
2022/04/03 10:28:47;;;;;;;3.65;1.10;;;9.50;98.70;;;;;;5110274;28;20020;-84
2022/04/03 10:31:15;;;;;;;2.65;0.95;;;9.50;98.30;;;;;;5092471;28;20027;-85
2022/04/03 10:33:43;;;;;;;3.83;1.00;;;9.50;96.50;;;;;;5099016;28;20041;-85
2022/04/03 10:36:13;;;;;;;2.33;1.02;;;9.50;97.10;;;;;;5076802;28;20094;-84
2022/04/03 10:38:55;;;;;;;2.40;0.98;;;9.50;96.50;;;;;;5094679;28;20028;-87
2022/04/03 10:41:29;;;;;;;3.65;1.20;;;9.40;96.90;;;;;;5094599;28;20028;-82
2022/04/03 10:44:18;;;;;;;3.70;1.50;;;9.40;97.00;;;;;;5076241;28;20111;-84
2022/04/03 10:47:04;;;;;;;4.57;1.80;;;9.40;97.10;;;;;;5076254;28;20024;-85
2022/04/03 10:49:30;;;;;;;4.90;1.20;;;9.40;96.40;;;;;;5065149;28;20426;-84
2022/04/03 10:52:23;;;;;;;3.17;0.75;;;9.40;96.30;;;;;;5075939;28;20024;-84
2022/04/03 10:55:00;;;;;;;2.28;0.90;;;9.40;96.00;;;;;;5075097;28;20476;-84
2022/04/03 10:57:44;;;;;;;4.07;1.15;;;9.40;95.80;;;;;;5080272;28;20111;-83
2022/04/03 11:00:13;;;;;;;1.83;0.93;;;9.40;95.60;;;;;;5077427;28;20043;-83
2022/04/03 11:02:51;;;;;;;2.05;1.15;;;9.50;95.50;;;;;;5095408;28;20027;-84
2022/04/03 11:05:25;;;;;;;4.13;1.05;;;9.50;95.50;;;;;;5094708;28;20051;-84
2022/04/03 11:07:54;;;;;;;3.00;0.98;;;9.50;95.40;;;;;;5075986;28;20036;-84
2022/04/03 11:10:57;;;;;;;4.70;1.20;;;9.60;95.30;;;;;;5093659;28;20096;-84
2022/04/03 11:13:34;;;;;;;4.70;1.10;;;9.60;95.20;;;;;;5077751;28;20025;-84
2022/04/03 11:16:03;;;;;;;1.40;0.77;;;9.60;95.50;;;;;;5076155;28;20562;-85
2022/04/03 11:18:35;;;;;;;4.05;1.23;;;9.70;95.80;;;;;;5093586;28;20104;-83
2022/04/03 11:21:17;;;;;;;3.88;1.58;;;9.70;95.60;;;;;;5094623;28;20051;-83
2022/04/03 11:23:58;;;;;;;4.30;1.20;;;9.70;94.80;;;;;;5094271;28;20111;-83
2022/04/03 11:26:26;;;;;;;4.20;1.17;;;9.70;94.80;;;;;;5075334;28;20027;-83
2022/04/03 11:28:52;;;;;;;3.58;1.48;;;9.80;95.20;;;;;;5075362;28;20024;-83
2022/04/03 11:31:18;;;;;;;3.95;1.00;;;9.80;94.90;;;;;;5061432;28;20047;-83
2022/04/03 11:33:46;;;;;;;3.78;0.95;;;9.80;95.10;;;;;;5079729;28;20107;-83
2022/04/03 11:36:16;;;;;;;3.45;1.02;;;9.80;94.90;;;;;;5078876;28;20066;-84
2022/04/03 11:38:46;;;;;;;4.10;1.30;;;9.80;94.70;;;;;;5078659;28;20115;-84
2022/04/03 11:41:13;;;;;;;2.45;0.80;;;9.90;94.40;;;;;;5079361;28;20056;-84
2022/04/03 11:43:41;;;;;;;2.88;0.90;;;9.90;94.10;;;;;;5098009;28;20031;-84
2022/04/03 11:46:08;;;;;;;4.00;1.17;;;9.90;92.90;;;;;;5079567;28;20028;-84
2022/04/03 11:48:42;;;;;;;1.63;0.90;;;9.90;93.40;;;;;;5079240;28;20055;-85
2022/04/03 11:51:13;;;;;;;2.03;1.10;;;9.80;93.20;;;;;;5079177;28;20016;-84
2022/04/03 11:53:41;;;;;;;1.52;0.98;;;9.80;93.50;;;;;;5078566;28;20020;-84
2022/04/03 11:56:15;;;;;;;2.70;1.13;;;9.90;93.40;;;;;;5079428;28;20027;-84
2022/04/03 11:58:46;;;;;;;5.18;0.75;;;9.90;92.80;;;;;;5096661;28;20067;-85
2022/04/03 12:01:12;;;;;;;2.23;0.80;;;9.90;93.10;;;;;;5078922;28;20548;-84
2022/04/03 12:03:39;;;;;;;3.33;1.02;;;10.00;93.20;;;;;;5079000;28;20020;-84
2022/04/03 12:06:16;;;;;;;3.45;1.13;;;10.00;92.80;;;;;;5078904;28;20090;-84
2022/04/03 12:08:46;;;;;;;3.38;1.20;;;10.10;92.60;;;;;;5078684;28;20024;-85
2022/04/03 12:11:29;;;;;;;2.28;0.90;;;10.10;92.20;;;;;;5078533;28;20036;-85
2022/04/03 12:14:00;;;;;;;4.43;1.55;;;10.10;91.90;;;;;;5062429;28;20050;-84
2022/04/03 12:16:31;;;;;;;2.97;1.23;;;10.10;92.00;;;;;;5078868;28;20028;-85
2022/04/03 12:19:04;;;;;;;4.28;1.98;;;10.10;92.20;;;;;;5062094;28;20043;-85
2022/04/03 12:21:56;;;;;;;4.82;1.73;;;10.10;92.30;;;;;;5097205;28;20062;-85
2022/04/03 12:24:29;;;;;;;3.92;1.40;;;10.10;91.10;;;;;;5095703;28;20043;-86
2022/04/03 12:26:58;;;;;;;5.65;1.60;;;10.00;91.70;;;;;;5088325;28;20012;-85
2022/04/03 12:29:25;;;;;;;7.50;3.30;;;10.00;91.40;;;;;;5104535;28;20455;-85
2022/04/03 12:32:05;;;;;;;4.70;2.25;;;10.00;91.70;;;;;;5079525;28;20020;-87
2022/04/03 12:34:33;;;;;;;6.15;2.10;;;9.90;91.20;;;;;;5097243;28;20341;-86
2022/04/03 12:37:01;;;;;;;3.35;1.73;;;9.90;91.50;;;;;;5079401;28;20028;-86
2022/04/03 12:39:32;;;;;;;2.85;1.20;;;9.80;91.50;;;;;;5081953;28;20020;-85
2022/04/03 12:42:19;;;;;;;2.20;1.15;;;9.80;91.20;;;;;;5097134;28;20461;-85
2022/04/03 12:44:48;;;;;;;5.45;1.38;;;9.80;91.20;;;;;;5079173;28;20417;-86
2022/04/03 12:47:15;;;;;;;4.00;1.48;;;9.80;91.50;;;;;;5078710;28;20096;-86
2022/04/03 12:49:44;;;;;;;4.47;1.30;;;9.80;91.70;;;;;;5097070;28;20372;-86
2022/04/03 12:52:10;;;;;;;3.33;1.27;;;9.80;92.10;;;;;;5078964;28;20016;-85
2022/04/03 12:54:46;;;;;;;2.38;1.40;;;9.80;92.00;;;;;;5061777;28;20070;-86
2022/04/03 13:00:16;;;;;;;1.95;1.08;;;9.90;92.30;;;;;;5096777;28;20059;-85
2022/04/03 13:02:46;;;;;;;2.13;1.10;;;9.90;92.50;;;;;;5096331;28;20097;-86
2022/04/03 13:05:18;;;;;;;3.65;1.00;;;9.90;92.70;;;;;;5078450;28;20028;-84
2022/04/03 13:07:45;;;;;;;1.58;1.00;;;9.90;92.90;;;;;;5077778;28;20027;-84